Time;durP1;ratioP1;P1;durP2;ratioP2;P2;SDS_P1;SDS_P2;PMS_P1;PMS_P2;Temp;Humidity;BMP_temperature;BMP_pressure;BME280_temperature;BME280_humidity;BME280_pressure;Samples;Min_cycle;Max_cycle;Signal;HPM_P1;HPM_P2
2024/02/11 00:00:10;;;;;;;0.52;0.22;;;;;;;;;;4725059;30;20049;-82
2024/02/11 00:02:37;;;;;;;1.90;0.20;;;;;;;;;;4736442;30;20491;-82
2024/02/11 00:05:07;;;;;;;4.03;3.67;;;;;;;;;;4749846;30;20036;-82
2024/02/11 00:07:44;;;;;;;0.47;0.20;;;;;;;;;;4741886;30;20051;-82
2024/02/11 00:10:10;;;;;;;347.70;228.30;;;;;;;;;;4749356;30;20044;-82
2024/02/11 00:12:38;;;;;;;0.45;0.10;;;;;;;;;;4752110;30;20166;-82
2024/02/11 00:15:05;;;;;;;0.85;0.40;;;;;;;;;;4761259;30;20044;-82
2024/02/11 00:17:34;;;;;;;17.40;14.00;;;;;;;;;;4745482;30;20045;-82
2024/02/11 00:20:01;;;;;;;183.40;147.88;;;;;;;;;;4748985;30;20052;-82
2024/02/11 00:22:27;;;;;;;75.20;64.10;;;;;;;;;;4746503;30;20517;-82
2024/02/11 00:24:56;;;;;;;2.40;1.00;;;;;;;;;;4734399;30;20120;-81
2024/02/11 00:27:25;;;;;;;2.22;0.38;;;;;;;;;;4740867;30;20056;-82
2024/02/11 00:29:52;;;;;;;2.00;0.30;;;;;;;;;;4751783;30;20531;-81
2024/02/11 00:32:18;;;;;;;2.92;0.70;;;;;;;;;;4741416;30;20131;-81
2024/02/11 00:34:44;;;;;;;5.07;0.90;;;;;;;;;;4735016;30;20053;-81
2024/02/11 00:37:13;;;;;;;2.88;1.20;;;;;;;;;;4736841;30;20135;-82
2024/02/11 00:39:39;;;;;;;2.38;0.93;;;;;;;;;;4736231;30;20048;-81
2024/02/11 00:42:05;;;;;;;2.13;0.60;;;;;;;;;;4743831;30;20044;-81
2024/02/11 00:44:31;;;;;;;0.65;0.20;;;;;;;;;;4746125;30;20045;-81
2024/02/11 00:47:00;;;;;;;0.85;0.13;;;;;;;;;;4738179;30;20091;-81
2024/02/11 00:49:26;;;;;;;0.90;0.20;;;;;;;;;;4739102;30;20063;-81
2024/02/11 00:51:54;;;;;;;0.22;0.13;;;;;;;;;;4746016;30;20060;-81
2024/02/11 00:54:20;;;;;;;0.13;0.10;;;;;;;;;;4739006;30;20056;-81
2024/02/11 00:56:46;;;;;;;1.75;0.40;;;;;;;;;;4742027;30;20052;-81
2024/02/11 00:59:15;;;;;;;1.75;0.55;;;;;;;;;;4738912;30;20055;-81
2024/02/11 01:01:42;;;;;;;3.60;1.20;;;;;;;;;;4740023;30;20411;-81
2024/02/11 01:04:08;;;;;;;4.05;3.70;;;;;;;;;;4760267;30;20711;-81
2024/02/11 01:06:34;;;;;;;1.17;0.30;;;;;;;;;;4747420;30;20074;-81
2024/02/11 01:09:00;;;;;;;1.83;0.60;;;;;;;;;;4732293;30;20251;-81
2024/02/11 01:11:26;;;;;;;0.88;0.30;;;;;;;;;;4741411;30;20135;-81
2024/02/11 01:13:52;;;;;;;0.52;0.32;;;;;;;;;;4731073;30;20052;-81
2024/02/11 01:16:18;;;;;;;2.13;0.70;;;;;;;;;;4738282;30;20443;-81
2024/02/11 01:18:45;;;;;;;0.52;0.25;;;;;;;;;;4740377;30;20040;-82
2024/02/11 01:21:11;;;;;;;1.85;0.57;;;;;;;;;;4733944;30;20037;-81
2024/02/11 01:23:37;;;;;;;2.90;0.98;;;;;;;;;;4746468;30;20891;-82
2024/02/11 01:26:04;;;;;;;2.45;0.60;;;;;;;;;;4741286;30;20732;-82
2024/02/11 01:28:30;;;;;;;2.47;0.60;;;;;;;;;;4749034;30;20052;-81
2024/02/11 01:30:57;;;;;;;1.45;0.93;;;;;;;;;;4737914;30;20040;-81
2024/02/11 01:33:23;;;;;;;1.23;0.22;;;;;;;;;;4737884;30;20084;-81
2024/02/11 01:35:49;;;;;;;1.00;0.40;;;;;;;;;;4742212;30;20211;-81
2024/02/11 01:38:15;;;;;;;0.85;0.47;;;;;;;;;;4746920;30;20123;-81
2024/02/11 01:40:42;;;;;;;0.65;0.28;;;;;;;;;;4735824;30;20132;-81
2024/02/11 01:43:11;;;;;;;30.00;23.33;;;;;;;;;;4732606;30;20131;-79
2024/02/11 01:45:38;;;;;;;0.50;0.20;;;;;;;;;;4736412;30;20037;-81
2024/02/11 01:48:04;;;;;;;;;;;;;;;;;;4745576;30;20044;-81
2024/02/11 01:50:32;;;;;;;1.55;0.10;;;;;;;;;;4739438;30;19969;-81
2024/02/11 01:52:58;;;;;;;0.38;0.08;;;;;;;;;;4752025;30;20052;-79
2024/02/11 01:55:24;;;;;;;;;;;;;;;;;;4732635;30;20075;-79
2024/02/11 01:57:50;;;;;;;;;;;;;;;;;;4733194;30;20369;-81
2024/02/11 02:00:16;;;;;;;2.83;0.10;;;;;;;;;;4738764;30;19923;-79
2024/02/11 02:02:43;;;;;;;1.02;0.28;;;;;;;;;;4747689;30;20060;-79
2024/02/11 02:05:09;;;;;;;2.63;0.93;;;;;;;;;;4743118;30;20434;-81
2024/02/11 02:07:35;;;;;;;0.68;0.22;;;;;;;;;;4732741;30;20052;-81
2024/02/11 02:10:01;;;;;;;0.40;0.05;;;;;;;;;;4740268;30;20052;-81
2024/02/11 02:12:27;;;;;;;0.60;0.20;;;;;;;;;;4760647;30;20114;-81
2024/02/11 02:14:54;;;;;;;0.22;0.10;;;;;;;;;;4742679;30;20736;-81
2024/02/11 02:17:20;;;;;;;;;;;;;;;;;;4743370;30;20387;-82
2024/02/11 02:19:46;;;;;;;;;;;;;;;;;;4749542;30;20027;-81
2024/02/11 02:22:12;;;;;;;;;;;;;;;;;;4753034;30;19933;-82
2024/02/11 02:24:38;;;;;;;;;;;;;;;;;;4742846;30;19918;-81
2024/02/11 02:27:05;;;;;;;;;;;;;;;;;;4748087;30;20012;-82
2024/02/11 02:29:31;;;;;;;;;;;;;;;;;;4733778;30;19919;-81
2024/02/11 02:31:57;;;;;;;;;;;;;;;;;;4739370;30;19941;-81
2024/02/11 02:34:23;;;;;;;;;;;;;;;;;;4750686;30;19918;-82
2024/02/11 02:36:50;;;;;;;;;;;;;;;;;;4740446;30;19918;-81
2024/02/11 02:39:16;;;;;;;;;;;;;;;;;;4759789;30;19954;-81
2024/02/11 02:41:42;;;;;;;;;;;;;;;;;;4740754;30;19965;-82
2024/02/11 02:44:08;;;;;;;;;;;;;;;;;;4741030;30;19929;-81
2024/02/11 02:46:34;;;;;;;;;;;;;;;;;;4732379;30;19926;-81
2024/02/11 02:49:00;;;;;;;;;;;;;;;;;;4732082;30;20730;-82
2024/02/11 02:51:26;;;;;;;;;;;;;;;;;;4735409;30;19925;-81
2024/02/11 02:53:51;;;;;;;;;;;;;;;;;;4742400;30;19918;-81
2024/02/11 02:56:17;;;;;;;;;;;;;;;;;;4750365;30;19918;-81
2024/02/11 02:58:43;;;;;;;;;;;;;;;;;;4754410;30;20370;-81
2024/02/11 03:01:09;;;;;;;;;;;;;;;;;;4725206;30;19918;-81
2024/02/11 03:03:35;;;;;;;;;;;;;;;;;;4730768;30;19922;-82
2024/02/11 03:06:01;;;;;;;;;;;;;;;;;;4736253;30;19918;-82
2024/02/11 03:08:27;;;;;;;;;;;;;;;;;;4736815;30;19923;-82
2024/02/11 03:10:53;;;;;;;;;;;;;;;;;;4738153;30;19925;-82
2024/02/11 03:13:19;;;;;;;;;;;;;;;;;;4740038;30;19922;-82
2024/02/11 03:15:45;;;;;;;;;;;;;;;;;;4736588;30;20278;-81
2024/02/11 03:18:11;;;;;;;;;;;;;;;;;;4745958;30;19918;-81
2024/02/11 03:20:36;;;;;;;;;;;;;;;;;;4741521;30;19919;-81
2024/02/11 03:23:02;;;;;;;;;;;;;;;;;;4738027;30;20021;-81
2024/02/11 03:25:28;;;;;;;;;;;;;;;;;;4740791;30;20324;-81
2024/02/11 03:27:54;;;;;;;;;;;;;;;;;;4733353;30;19922;-81
2024/02/11 03:30:21;;;;;;;;;;;;;;;;;;4731713;30;19914;-82
2024/02/11 03:32:48;;;;;;;;;;;;;;;;;;4749504;30;19918;-81
2024/02/11 03:35:14;;;;;;;;;;;;;;;;;;4762603;30;19967;-81
2024/02/11 03:37:40;;;;;;;;;;;;;;;;;;4742411;30;19957;-81
2024/02/11 03:40:10;;;;;;;;;;;;;;;;;;4747251;30;19976;-80
2024/02/11 03:42:36;;;;;;;;;;;;;;;;;;4750962;30;20368;-81
2024/02/11 03:45:04;;;;;;;;;;;;;;;;;;4760605;30;19962;-81
2024/02/11 03:47:30;;;;;;;;;;;;;;;;;;4737636;30;19920;-81
2024/02/11 03:49:56;;;;;;;;;;;;;;;;;;4736227;30;19918;-81
2024/02/11 03:52:21;;;;;;;;;;;;;;;;;;4736446;30;19942;-81
2024/02/11 03:54:47;;;;;;;;;;;;;;;;;;4743578;30;19921;-81
2024/02/11 03:57:13;;;;;;;;;;;;;;;;;;4762202;30;19910;-81
2024/02/11 03:59:40;;;;;;;;;;;;;;;;;;4750223;30;19929;-81
2024/02/11 04:02:06;;;;;;;;;;;;;;;;;;4754872;30;19951;-81
2024/02/11 04:04:32;;;;;;;;;;;;;;;;;;4748833;30;19945;-81
2024/02/11 04:06:58;;;;;;;;;;;;;;;;;;4745038;30;20009;-81
2024/02/11 04:09:28;;;;;;;;;;;;;;;;;;4736822;30;19929;-81
2024/02/11 04:11:54;;;;;;;;;;;;;;;;;;4729747;30;20491;-81
2024/02/11 04:14:20;;;;;;;;;;;;;;;;;;4738660;30;19953;-80
2024/02/11 04:16:46;;;;;;;;;;;;;;;;;;4738424;30;19922;-81
2024/02/11 04:19:12;;;;;;;;;;;;;;;;;;4749598;30;20258;-81
2024/02/11 04:21:40;;;;;;;;;;;;;;;;;;4737567;30;19929;-81
2024/02/11 04:24:08;;;;;;;;;;;;;;;;;;4750420;30;19964;-81
2024/02/11 04:26:36;;;;;;;;;;;;;;;;;;4741825;30;19930;-81
2024/02/11 04:29:02;;;;;;;;;;;;;;;;;;4742199;30;19929;-81
2024/02/11 04:31:30;;;;;;;;;;;;;;;;;;4742942;30;19922;-81
2024/02/11 04:33:56;;;;;;;1.25;0.60;;;;;;;;;;4750329;30;19922;-81
2024/02/11 04:36:23;;;;;;;5.10;1.08;;;;;;;;;;4740577;30;20060;-81
2024/02/11 04:38:49;;;;;;;3.15;0.90;;;;;;;;;;4744503;30;20400;-81
2024/02/11 04:41:17;;;;;;;2.53;0.90;;;;;;;;;;4741883;30;20051;-81
2024/02/11 04:43:44;;;;;;;1.52;0.70;;;;;;;;;;4733236;30;20198;-81
2024/02/11 04:46:11;;;;;;;3.25;1.08;;;;;;;;;;4748993;30;20036;-81
2024/02/11 04:48:37;;;;;;;1.38;0.55;;;;;;;;;;4742363;30;20083;-81
2024/02/11 04:51:03;;;;;;;1.17;0.50;;;;;;;;;;4727280;30;20421;-81
2024/02/11 04:53:30;;;;;;;2.05;0.20;;;;;;;;;;4741589;30;20661;-81
2024/02/11 04:55:57;;;;;;;3.60;0.35;;;;;;;;;;4721654;30;20045;-81
2024/02/11 04:58:26;;;;;;;2.13;0.47;;;;;;;;;;4755545;30;20051;-81
2024/02/11 05:00:52;;;;;;;0.98;0.45;;;;;;;;;;4751164;30;20040;-81
2024/02/11 05:03:19;;;;;;;0.57;0.28;;;;;;;;;;4744164;30;20059;-81
2024/02/11 05:05:46;;;;;;;1.35;0.43;;;;;;;;;;4739946;30;20052;-81
2024/02/11 05:08:16;;;;;;;1.50;0.57;;;;;;;;;;4740861;30;20452;-81
2024/02/11 05:10:43;;;;;;;1.65;0.40;;;;;;;;;;4733944;30;20037;-81
2024/02/11 05:13:11;;;;;;;1.58;0.30;;;;;;;;;;4745374;30;20087;-81
2024/02/11 05:15:48;;;;;;;1.45;0.20;;;;;;;;;;4739609;30;20393;-81
2024/02/11 05:18:15;;;;;;;0.57;0.20;;;;;;;;;;4742724;30;20052;-81
2024/02/11 05:20:42;;;;;;;11.77;0.85;;;;;;;;;;4736526;30;20040;-81
2024/02/11 05:23:11;;;;;;;0.88;0.30;;;;;;;;;;4748201;30;20064;-81
2024/02/11 05:25:38;;;;;;;1.23;0.35;;;;;;;;;;4742438;30;20540;-81
2024/02/11 05:28:27;;;;;;;0.80;0.40;;;;;;;;;;4738765;30;20083;-81
2024/02/11 05:30:55;;;;;;;1.65;0.70;;;;;;;;;;4737842;30;20052;-81
2024/02/11 05:33:22;;;;;;;;;;;;;;;;;;4749050;30;20052;-81
2024/02/11 05:35:48;;;;;;;;;;;;;;;;;;4734595;30;20407;-82
2024/02/11 05:38:14;;;;;;;;;;;;;;;;;;4734536;30;20282;-81
2024/02/11 05:40:45;;;;;;;;;;;;;;;;;;4758876;30;19914;-81
2024/02/11 05:43:12;;;;;;;;;;;;;;;;;;4748900;30;19925;-81
2024/02/11 05:45:38;;;;;;;;;;;;;;;;;;4734677;30;19929;-81
2024/02/11 05:48:04;;;;;;;;;;;;;;;;;;4750261;30;19918;-81
2024/02/11 05:50:30;;;;;;;;;;;;;;;;;;4746313;30;19980;-81
2024/02/11 05:52:55;;;;;;;;;;;;;;;;;;4750501;30;19930;-81
2024/02/11 05:55:21;;;;;;;;;;;;;;;;;;4747584;30;19917;-81
2024/02/11 05:57:47;;;;;;;;;;;;;;;;;;4754285;30;19918;-81
2024/02/11 06:00:14;;;;;;;;;;;;;;;;;;4749477;30;19925;-81
2024/02/11 06:02:40;;;;;;;;;;;;;;;;;;4742799;30;19922;-81
2024/02/11 06:05:15;;;;;;;;;;;;;;;;;;4734136;30;19922;-81
2024/02/11 06:07:41;;;;;;;;;;;;;;;;;;4748800;30;19925;-80
2024/02/11 06:10:06;;;;;;;;;;;;;;;;;;4744210;30;19921;-81
2024/02/11 06:12:33;;;;;;;2.63;1.13;;;;;;;;;;4736362;30;19918;-81
2024/02/11 06:15:00;;;;;;;0.82;0.32;;;;;;;;;;4739492;30;20052;-81
2024/02/11 06:17:26;;;;;;;2.42;0.90;;;;;;;;;;4727947;30;20044;-81
2024/02/11 06:19:53;;;;;;;3.55;1.35;;;;;;;;;;4747123;30;20059;-81
2024/02/11 06:22:19;;;;;;;2.13;0.98;;;;;;;;;;4740171;30;20057;-81
2024/02/11 06:24:46;;;;;;;4.53;0.60;;;;;;;;;;4746417;30;20490;-81
2024/02/11 06:27:12;;;;;;;1.00;0.32;;;;;;;;;;4725529;30;20070;-79
2024/02/11 06:29:42;;;;;;;1.48;0.40;;;;;;;;;;4742181;30;20131;-78
2024/02/11 06:32:08;;;;;;;2.03;0.75;;;;;;;;;;4746150;30;20072;-79
2024/02/11 06:34:38;;;;;;;2.33;0.65;;;;;;;;;;4736285;30;20053;-78
2024/02/11 06:37:04;;;;;;;1.50;0.63;;;;;;;;;;4732112;30;20047;-78
2024/02/11 06:39:30;;;;;;;2.17;0.65;;;;;;;;;;4746211;30;20047;-78
2024/02/11 06:42:02;;;;;;;6.57;1.02;;;;;;;;;;4745310;30;20503;-77
2024/02/11 06:44:29;;;;;;;1.83;0.85;;;;;;;;;;4743276;30;20093;-79
2024/02/11 06:46:55;;;;;;;8.80;2.05;;;;;;;;;;4734407;30;20052;-79
2024/02/11 06:49:22;;;;;;;15.40;1.77;;;;;;;;;;4743154;30;20056;-80
2024/02/11 06:51:49;;;;;;;2.10;0.82;;;;;;;;;;4735869;30;20055;-80
2024/02/11 06:54:15;;;;;;;;;;;;;;;;;;4736785;30;20052;-78
2024/02/11 06:56:41;;;;;;;4.97;1.55;;;;;;;;;;4748483;30;19918;-77
2024/02/11 06:59:07;;;;;;;2.88;0.68;;;;;;;;;;4739146;30;20847;-78
2024/02/11 07:01:33;;;;;;;2.47;1.25;;;;;;;;;;4757841;30;20047;-78
2024/02/11 07:04:00;;;;;;;1.35;0.40;;;;;;;;;;4745396;30;20055;-80
2024/02/11 07:06:26;;;;;;;1.63;0.75;;;;;;;;;;4745310;30;20567;-80
2024/02/11 07:08:52;;;;;;;2.70;0.77;;;;;;;;;;4749515;30;20079;-80
2024/02/11 07:11:18;;;;;;;;;;;;;;;;;;4734052;30;20047;-79
2024/02/11 07:13:47;;;;;;;5.78;0.65;;;;;;;;;;4746998;30;20366;-79
2024/02/11 07:16:13;;;;;;;2.65;0.73;;;;;;;;;;4741701;30;20511;-80
2024/02/11 07:18:39;;;;;;;1.05;0.63;;;;;;;;;;4739438;30;20056;-80
2024/02/11 07:21:05;;;;;;;1.38;0.80;;;;;;;;;;4741079;30;20134;-79
2024/02/11 07:23:32;;;;;;;;;;;;;;;;;;4741698;30;20529;-81
2024/02/11 07:25:57;;;;;;;;;;;;;;;;;;4737330;30;20346;-81
2024/02/11 07:28:23;;;;;;;;;;;;;;;;;;4743922;30;19993;-81
2024/02/11 07:30:49;;;;;;;;;;;;;;;;;;4744632;30;19918;-81
2024/02/11 07:33:18;;;;;;;;;;;;;;;;;;4739154;30;19937;-80
2024/02/11 07:35:44;;;;;;;;;;;;;;;;;;4748326;30;20494;-81
2024/02/11 07:38:10;;;;;;;;;;;;;;;;;;4732957;30;19918;-81
2024/02/11 07:40:36;;;;;;;;;;;;;;;;;;4749779;30;19983;-82
2024/02/11 07:43:02;;;;;;;;;;;;;;;;;;4748465;30;19932;-81
2024/02/11 07:45:28;;;;;;;;;;;;;;;;;;4738161;30;19914;-81
2024/02/11 07:47:54;;;;;;;;;;;;;;;;;;4745094;30;20391;-82
2024/02/11 07:50:21;;;;;;;;;;;;;;;;;;4741310;30;19918;-80
2024/02/11 07:52:47;;;;;;;;;;;;;;;;;;4748284;30;19933;-80
2024/02/11 07:55:13;;;;;;;;;;;;;;;;;;4740020;30;19920;-80
2024/02/11 07:57:39;;;;;;;;;;;;;;;;;;4731606;30;19935;-81
2024/02/11 08:00:07;;;;;;;;;;;;;;;;;;4745482;30;19918;-80
2024/02/11 08:02:33;;;;;;;;;;;;;;;;;;4739063;30;19961;-80
2024/02/11 08:04:59;;;;;;;;;;;;;;;;;;4739800;30;20322;-80
2024/02/11 08:07:26;;;;;;;;;;;;;;;;;;4739666;30;19919;-82
2024/02/11 08:09:52;;;;;;;;;;;;;;;;;;4739397;30;19945;-83
2024/02/11 08:12:18;;;;;;;;;;;;;;;;;;4734258;30;19968;-82
2024/02/11 08:14:44;;;;;;;;;;;;;;;;;;4726732;30;19926;-83
2024/02/11 08:17:12;;;;;;;;;;;;;;;;;;4740556;30;20780;-83
2024/02/11 08:19:38;;;;;;;;;;;;;;;;;;4744967;30;20302;-83
2024/02/11 08:22:06;;;;;;;;;;;;;;;;;;4735385;30;19926;-82
2024/02/11 08:24:33;;;;;;;;;;;;;;;;;;4752862;30;19957;-83
2024/02/11 08:26:59;;;;;;;;;;;;;;;;;;4727016;30;20550;-82
2024/02/11 08:29:24;;;;;;;;;;;;;;;;;;4730736;30;19922;-82
2024/02/11 08:31:51;;;;;;;;;;;;;;;;;;4748576;30;19922;-81
2024/02/11 08:34:18;;;;;;;;;;;;;;;;;;4744196;30;20022;-82
2024/02/11 08:36:44;;;;;;;;;;;;;;;;;;4740940;30;20658;-80
2024/02/11 08:39:10;;;;;;;;;;;;;;;;;;4741740;30;19919;-81
2024/02/11 08:41:36;;;;;;;;;;;;;;;;;;4751402;30;19941;-81
2024/02/11 08:44:02;;;;;;;;;;;;;;;;;;4743419;30;19922;-81
2024/02/11 08:46:28;;;;;;;;;;;;;;;;;;4744803;30;19922;-82
2024/02/11 08:48:54;;;;;;;;;;;;;;;;;;4750477;30;20349;-84
2024/02/11 08:51:21;;;;;;;;;;;;;;;;;;4734712;30;19941;-81
2024/02/11 08:53:47;;;;;;;;;;;;;;;;;;4744985;30;19997;-82
2024/02/11 08:56:13;;;;;;;;;;;;;;;;;;4748634;30;20358;-81
2024/02/11 08:58:39;;;;;;;;;;;;;;;;;;4737472;30;19919;-80
2024/02/11 09:01:05;;;;;;;;;;;;;;;;;;4746906;30;19922;-82
2024/02/11 09:03:32;;;;;;;;;;;;;;;;;;4741725;30;19922;-81
2024/02/11 09:05:59;;;;;;;;;;;;;;;;;;4746336;30;20038;-84
2024/02/11 09:08:25;;;;;;;;;;;;;;;;;;4748731;30;20315;-83
2024/02/11 09:10:51;;;;;;;;;;;;;;;;;;4747596;30;20076;-83
2024/02/11 09:13:17;;;;;;;;;;;;;;;;;;4736599;30;20424;-81
2024/02/11 09:15:44;;;;;;;;;;;;;;;;;;4734646;30;19958;-82
2024/02/11 09:18:13;;;;;;;;;;;;;;;;;;4742197;30;19918;-82
2024/02/11 09:20:39;;;;;;;;;;;;;;;;;;4743452;30;20005;-82
2024/02/11 09:23:05;;;;;;;;;;;;;;;;;;4731724;30;20005;-81
2024/02/11 09:25:31;;;;;;;;;;;;;;;;;;4739775;30;19918;-84
2024/02/11 09:27:58;;;;;;;;;;;;;;;;;;4741698;30;20297;-82
2024/02/11 09:30:24;;;;;;;;;;;;;;;;;;4740472;30;19996;-83
2024/02/11 09:32:50;;;;;;;;;;;;;;;;;;4742615;30;20013;-83
2024/02/11 09:35:21;;;;;;;;;;;;;;;;;;4734106;30;20512;-83
2024/02/11 09:37:47;;;;;;;;;;;;;;;;;;4736405;30;19922;-80
2024/02/11 09:40:13;;;;;;;;;;;;;;;;;;4734628;30;19929;-81
2024/02/11 09:42:39;;;;;;;;;;;;;;;;;;4742964;30;19934;-82
2024/02/11 09:45:05;;;;;;;;;;;;;;;;;;4741476;30;19926;-82
2024/02/11 09:47:33;;;;;;;;;;;;;;;;;;4734395;30;20400;-82
2024/02/11 09:50:01;;;;;;;;;;;;;;;;;;4747211;30;19965;-81
2024/02/11 09:52:27;;;;;;;1.73;0.85;;;;;;;;;;4746019;30;19919;-82
2024/02/11 09:54:53;;;;;;;4.35;1.60;;;;;;;;;;4722170;30;20078;-81
2024/02/11 09:57:19;;;;;;;3.88;0.93;;;;;;;;;;4744971;30;20606;-83
2024/02/11 09:59:46;;;;;;;14.68;1.20;;;;;;;;;;4734868;30;20049;-82
2024/02/11 10:02:19;;;;;;;2.75;0.80;;;;;;;;;;4742340;30;20051;-81
2024/02/11 10:04:45;;;;;;;;;;;;;;;;;;4737437;30;20104;-81
2024/02/11 10:07:20;;;;;;;10.57;1.70;;;;;;;;;;4743136;30;19967;-82
2024/02/11 10:09:47;;;;;;;5.80;1.65;;;;;;;;;;4732911;30;20045;-84
2024/02/11 10:12:14;;;;;;;3.08;0.50;;;;;;;;;;4745446;30;20492;-83
2024/02/11 10:14:50;;;;;;;4.25;0.65;;;;;;;;;;4740017;30;20106;-82
2024/02/11 10:17:16;;;;;;;3.00;0.68;;;;;;;;;;4735973;30;20040;-83
2024/02/11 10:19:43;;;;;;;2.85;1.05;;;;;;;;;;4724856;30;20084;-84
2024/02/11 10:22:12;;;;;;;1.88;0.70;;;;;;;;;;4734481;30;20053;-83
2024/02/11 10:24:39;;;;;;;2.58;0.98;;;;;;;;;;4738063;30;20076;-83
2024/02/11 10:27:05;;;;;;;2.47;1.13;;;;;;;;;;4741350;30;20079;-85
2024/02/11 10:29:31;;;;;;;3.45;1.05;;;;;;;;;;4749671;30;20147;-83
2024/02/11 10:31:57;;;;;;;1.73;0.95;;;;;;;;;;4753103;30;20056;-83
2024/02/11 10:34:23;;;;;;;2.42;0.82;;;;;;;;;;4748320;30;20044;-81
2024/02/11 10:36:49;;;;;;;1.42;0.40;;;;;;;;;;4740216;30;20052;-81
2024/02/11 10:39:15;;;;;;;1.77;0.90;;;;;;;;;;4758240;30;20082;-83
2024/02/11 10:41:42;;;;;;;5.78;0.52;;;;;;;;;;4740372;30;20962;-82
2024/02/11 10:44:09;;;;;;;0.85;0.20;;;;;;;;;;4733660;30;20119;-83
2024/02/11 10:46:35;;;;;;;2.33;0.50;;;;;;;;;;4742082;30;20389;-82
2024/02/11 10:49:03;;;;;;;1.10;0.40;;;;;;;;;;4733173;30;20049;-81
2024/02/11 10:51:32;;;;;;;0.60;0.20;;;;;;;;;;4745455;30;20131;-80
2024/02/11 10:53:59;;;;;;;1.88;0.40;;;;;;;;;;4748846;30;20048;-80
2024/02/11 10:56:26;;;;;;;7.13;1.00;;;;;;;;;;4742519;30;20155;-80
2024/02/11 10:59:08;;;;;;;4.53;1.67;;;;;;;;;;4738176;30;20045;-80
2024/02/11 11:01:37;;;;;;;4.18;1.40;;;;;;;;;;4735616;30;20721;-80
2024/02/11 11:04:03;;;;;;;5.78;1.85;;;;;;;;;;4746722;30;20117;-80
2024/02/11 11:06:31;;;;;;;3.47;1.63;;;;;;;;;;4733368;30;20057;-79
2024/02/11 11:09:00;;;;;;;;;;;;;;;;;;4745504;30;20040;-84
2024/02/11 11:11:27;;;;;;;6.13;1.52;;;;;;;;;;4731306;30;19925;-83
2024/02/11 11:13:56;;;;;;;4.18;1.27;;;;;;;;;;4740513;30;20056;-83
2024/02/11 11:16:31;;;;;;;4.30;1.45;;;;;;;;;;4738773;30;20064;-83
2024/02/11 11:19:03;;;;;;;7.30;2.03;;;;;;;;;;4741219;30;20048;-83
2024/02/11 11:21:29;;;;;;;;;;;;;;;;;;4742855;30;20626;-83
2024/02/11 11:23:59;;;;;;;6.03;1.45;;;;;;;;;;4742622;30;19926;-84
2024/02/11 11:26:27;;;;;;;3.83;1.45;;;;;;;;;;4731021;30;20166;-83
2024/02/11 11:29:01;;;;;;;3.15;1.15;;;;;;;;;;4749205;30;20076;-83
2024/02/11 11:37:28;;;;;;;2.22;1.17;;;;;;;;;;4695026;30;20168;-85
2024/02/11 11:42:37;;;;;;;3.30;0.93;;;;;;;;;;4750766;30;20065;-85
2024/02/11 11:45:06;;;;;;;1.83;0.60;;;;;;;;;;4728580;30;20052;-86
2024/02/11 11:47:33;;;;;;;4.45;0.73;;;;;;;;;;4736711;30;20085;-84
2024/02/11 11:50:46;;;;;;;2.47;0.40;;;;;;;;;;4752087;30;20098;-85
2024/02/11 11:53:19;;;;;;;0.93;0.35;;;;;;;;;;4739066;30;20452;-85
2024/02/11 11:56:05;;;;;;;1.85;0.40;;;;;;;;;;4727422;30;20044;-86
2024/02/11 12:01:45;;;;;;;0.85;0.30;;;;;;;;;;4655613;30;20122;-83
2024/02/11 12:04:12;;;;;;;2.63;0.68;;;;;;;;;;4665514;30;20043;-84
2024/02/11 12:06:39;;;;;;;1.92;0.80;;;;;;;;;;4710990;30;20166;-81
2024/02/11 12:09:05;;;;;;;1.85;0.77;;;;;;;;;;4715603;30;20083;-82
2024/02/11 12:11:31;;;;;;;1.45;0.60;;;;;;;;;;4715065;30;20091;-81
2024/02/11 12:13:57;;;;;;;4.40;1.35;;;;;;;;;;4715558;30;20081;-83
2024/02/11 12:16:26;;;;;;;7.93;1.42;;;;;;;;;;4715938;30;20104;-83
2024/02/11 12:18:52;;;;;;;1.80;0.68;;;;;;;;;;4702357;30;20045;-83
2024/02/11 12:21:20;;;;;;;1.17;0.32;;;;;;;;;;4697697;30;20100;-84
2024/02/11 12:23:46;;;;;;;1.83;0.77;;;;;;;;;;4696245;30;20060;-83
2024/02/11 12:26:19;;;;;;;2.35;0.55;;;;;;;;;;4695271;30;20167;-84
2024/02/11 12:28:49;;;;;;;1.10;0.57;;;;;;;;;;4698637;30;20457;-84
2024/02/11 12:31:16;;;;;;;2.08;0.80;;;;;;;;;;4722165;30;20049;-84
2024/02/11 12:33:42;;;;;;;5.60;0.63;;;;;;;;;;4714486;30;20448;-85
2024/02/11 12:36:10;;;;;;;5.18;0.90;;;;;;;;;;4728320;30;20057;-85
2024/02/11 12:38:37;;;;;;;2.63;0.68;;;;;;;;;;4710288;30;20055;-84
2024/02/11 12:41:03;;;;;;;3.95;0.73;;;;;;;;;;4721916;30;20063;-84
2024/02/11 12:43:31;;;;;;;2.97;0.98;;;;;;;;;;4716220;30;20053;-85
2024/02/11 12:45:57;;;;;;;3.22;0.68;;;;;;;;;;4713568;30;20068;-85
2024/02/11 12:48:23;;;;;;;2.67;0.98;;;;;;;;;;4725059;30;20036;-85
2024/02/11 12:50:50;;;;;;;3.08;0.70;;;;;;;;;;4714044;30;20053;-85
2024/02/11 12:53:17;;;;;;;1.00;0.40;;;;;;;;;;4732189;30;20137;-84
2024/02/11 12:55:43;;;;;;;0.73;0.40;;;;;;;;;;4715537;30;20064;-85
2024/02/11 12:58:09;;;;;;;1.73;0.40;;;;;;;;;;4734120;30;20047;-85
2024/02/11 13:00:35;;;;;;;6.22;1.30;;;;;;;;;;4713289;30;20056;-84
2024/02/11 13:03:01;;;;;;;3.58;0.85;;;;;;;;;;4718269;30;20041;-85
2024/02/11 13:05:28;;;;;;;6.30;1.00;;;;;;;;;;4715666;30;20087;-84
2024/02/11 13:07:54;;;;;;;3.35;0.70;;;;;;;;;;4718944;30;20065;-84
2024/02/11 13:10:20;;;;;;;1.95;0.65;;;;;;;;;;4726367;30;20056;-84
2024/02/11 13:12:46;;;;;;;7.30;1.60;;;;;;;;;;4730304;30;20049;-85
2024/02/11 13:15:12;;;;;;;3.90;0.77;;;;;;;;;;4723772;30;20092;-85
2024/02/11 13:17:47;;;;;;;4.72;0.77;;;;;;;;;;4713092;30;20057;-84
2024/02/11 13:20:13;;;;;;;1.25;0.50;;;;;;;;;;4715766;30;20099;-85
2024/02/11 13:22:40;;;;;;;3.70;0.88;;;;;;;;;;4715712;30;20051;-86
2024/02/11 13:25:10;;;;;;;3.22;1.08;;;;;;;;;;4732761;30;20044;-85
2024/02/11 13:27:43;;;;;;;5.00;1.02;;;;;;;;;;4713653;30;20041;-85
2024/02/11 13:30:09;;;;;;;2.47;0.70;;;;;;;;;;4714304;30;20144;-85
2024/02/11 13:32:35;;;;;;;1.83;0.60;;;;;;;;;;4712410;30;20037;-85
2024/02/11 13:35:01;;;;;;;2.08;0.52;;;;;;;;;;4720349;30;20061;-84
2024/02/11 13:37:28;;;;;;;1.35;0.47;;;;;;;;;;4713411;30;20720;-85
2024/02/11 13:39:54;;;;;;;4.13;1.05;;;;;;;;;;4712160;30;20056;-85
2024/02/11 13:42:20;;;;;;;8.88;1.13;;;;;;;;;;4709329;30;20376;-84
2024/02/11 13:44:49;;;;;;;1.33;0.52;;;;;;;;;;4724302;30;21533;-83
2024/02/11 13:47:15;;;;;;;2.28;0.70;;;;;;;;;;4723059;30;20127;-82
2024/02/11 13:49:41;;;;;;;3.47;0.47;;;;;;;;;;4725283;30;20112;-83
2024/02/11 13:52:08;;;;;;;2.85;0.65;;;;;;;;;;4711527;30;20064;-84
2024/02/11 13:54:34;;;;;;;4.40;1.00;;;;;;;;;;5094337;24;20052;-84
2024/02/11 13:57:00;;;;;;;3.10;0.47;;;;;;;;;;4745763;30;20075;-84
2024/02/11 14:03:10;;;;;;;4.35;0.90;;;;;;;;;;4738437;30;20048;-86
2024/02/11 14:05:39;;;;;;;4.05;1.08;;;;;;;;;;4696275;30;20048;-84
2024/02/11 14:08:06;;;;;;;2.40;0.82;;;;;;;;;;4737121;30;20071;-85
2024/02/11 14:10:47;;;;;;;12.82;1.00;;;;;;;;;;4724269;30;20059;-86
2024/02/11 14:13:14;;;;;;;5.05;1.13;;;;;;;;;;4745929;30;20087;-84
2024/02/11 14:16:12;;;;;;;2.58;0.60;;;;;;;;;;4741306;30;20379;-84
2024/02/11 14:18:38;;;;;;;5.57;0.95;;;;;;;;;;4712152;30;20442;-85
2024/02/11 14:21:08;;;;;;;2.97;0.90;;;;;;;;;;4734796;30;20744;-84
2024/02/11 14:23:34;;;;;;;2.10;0.65;;;;;;;;;;4734125;30;20074;-83
2024/02/11 14:26:00;;;;;;;3.00;0.35;;;;;;;;;;4731917;30;20040;-83
2024/02/11 14:28:27;;;;;;;4.13;0.68;;;;;;;;;;4732880;30;20063;-83
2024/02/11 14:30:53;;;;;;;1.50;0.40;;;;;;;;;;4741970;30;20107;-85
2024/02/11 14:33:19;;;;;;;1.40;0.40;;;;;;;;;;4736637;30;20088;-84
2024/02/11 14:35:45;;;;;;;0.77;0.20;;;;;;;;;;4744325;30;20048;-83
2024/02/11 14:39:06;;;;;;;1.75;0.50;;;;;;;;;;4745834;30;20071;-86
2024/02/11 14:54:45;;;;;;;1.25;0.22;;;;;;;;;;2915144;24;21496;-85
2024/02/11 15:59:31;;;;;;;7.78;1.15;;;;;;;;;;4743285;30;20566;-84
2024/02/11 16:31:44;;;;;;;0.38;0.10;;;;;;;;;;4563926;28;20151;-81
2024/02/11 16:34:10;;;;;;;;;;;;;;;;;;4720255;30;20049;-84
2024/02/11 18:03:31;;;;;;;;;;;;;;;;;;;;;
2024/02/11 18:09:14;;;;;;;6.88;3.08;;;;;;;;;;4608786;31;20412;-82
2024/02/11 18:11:44;;;;;;;6.13;2.30;;;;;;;;;;4678204;30;20577;-83
2024/02/11 18:14:10;;;;;;;11.45;2.70;;;;;;;;;;4721341;30;20103;-85
2024/02/11 18:17:06;;;;;;;5.38;1.85;;;;;;;;;;4733090;30;20056;-87
2024/02/11 18:19:33;;;;;;;4.72;1.77;;;;;;;;;;4728416;30;20041;-82
2024/02/11 18:22:12;;;;;;;4.45;1.58;;;;;;;;;;4727096;30;20066;-83
2024/02/11 18:43:50;;;;;;;11.38;3.63;;;;;;;;;;3146096;28;20052;-82
2024/02/11 18:46:16;;;;;;;6.25;1.98;;;;;;;;;;4741696;30;20066;-81
2024/02/11 18:48:43;;;;;;;7.00;2.40;;;;;;;;;;4734723;30;20569;-80
2024/02/11 18:51:09;;;;;;;6.43;2.47;;;;;;;;;;4751105;30;20044;-81
2024/02/11 18:53:36;;;;;;;23.17;5.57;;;;;;;;;;4734702;30;20079;-80
2024/02/11 18:56:02;;;;;;;20.05;6.63;;;;;;;;;;4745988;30;20452;-83
2024/02/11 18:58:28;;;;;;;12.15;3.15;;;;;;;;;;4736814;30;20080;-81
2024/02/11 19:00:54;;;;;;;11.30;3.20;;;;;;;;;;4740078;30;20067;-81
2024/02/11 19:03:21;;;;;;;6.85;2.90;;;;;;;;;;4744028;30;20127;-83
2024/02/11 19:05:47;;;;;;;9.63;2.83;;;;;;;;;;4738856;30;20056;-83
2024/02/11 19:08:13;;;;;;;6.30;1.80;;;;;;;;;;4734244;30;20385;-84
2024/02/11 19:10:41;;;;;;;3.17;1.08;;;;;;;;;;4743243;30;20048;-83
2024/02/11 19:13:07;;;;;;;3.85;1.65;;;;;;;;;;4729648;30;20080;-83
2024/02/11 19:15:34;;;;;;;4.97;1.88;;;;;;;;;;4740229;30;20070;-83